Detalii statie MIRACOM [00001CFF]

Toti senzorii

Date Temperatura solului [C]Precipitatii [mm]Voltaj baterie [mV]Leaf Wetness [Min]HC Air temperature [C]HC Relative humidity [%]Punctul de roua [C]
medieminmaxsumaultimatimpmedieminmaxmediemediemin
2019-04-19 19:00:00 12.1 11.6 12.8 0 7020 9.28 8.81 9.56 0 0 0
2019-04-19 20:00:00 11.4 11.1 11.7 0 7000 8.39 7.82 8.85 0 0 0
2019-04-19 21:00:00 10.7 10.5 11.2 0 6982 7.43 7.28 7.78 0 0 0
2019-04-19 22:00:00 10.2 10 10.5 0 6972 7.65 7.18 7.93 0 0 0
2019-04-19 23:00:00 9.7 9.5 10.1 0 6962 6.93 6.23 7.47 0 0 0
2019-04-20 00:00:00 9.2 9 9.5 0 6952 6.19 5.79 6.49 0 0 0
2019-04-20 01:00:00 8.8 8.7 9 0 6932 6.19 5.91 6.42 0 0 0
2019-04-20 02:00:00 8.4 8.2 8.6 0 6922 5.83 5.56 6.29 0 0 0
2019-04-20 03:00:00 8.2 8 8.4 0 6914 6.18 5.99 6.59 0 0 0
2019-04-20 04:00:00 8 7.8 8.2 0 6922 6.05 5.95 6.17 0 0 0
2019-04-20 05:00:00 7.8 7.7 7.9 0 6914 6.53 6.14 6.98 0 0 0
2019-04-20 06:00:00 7.5 7.4 7.8 0 6922 5.46 5.2 6.1 0 0 0
2019-04-20 07:00:00 7.2 7.1 7.5 0 7040 6.39 5.28 7.93 0 0 0
2019-04-20 08:00:00 7.3 7.1 7.5 0 7080 9 8.09 9.82 0 0 0
2019-04-20 09:00:00 7.9 7.6 8.5 0 7148 11.02 10.05 11.82 0 0 0
2019-04-20 10:00:00 9 8.6 9.7 0 7352 13.03 12.32 13.73 0 0 0
2019-04-20 11:00:00 10.2 9.7 10.9 0 7352 14.44 13.28 15.62 0 0 0
2019-04-20 12:00:00 11.5 11 12 0 7352 14.42 13.14 16.01 0 0 0
2019-04-20 13:00:00 12.5 12.1 13.1 0 7352 15.36 14.01 17.05 0 0 0
2019-04-20 14:00:00 13.4 13.1 13.9 0 7352 15.39 13.72 16.42 0 0 0
2019-04-20 15:00:00 14.1 13.9 14.4 0 7352 14.9 13.84 15.97 0 0 0
2019-04-20 16:00:00 14.1 14.1 14.4 0 7342 15.35 13.9 16.33 0 0 0
2019-04-20 17:00:00 13.9 13.7 14.1 0 7332 14.73 13.97 15.66 0 0 0
2019-04-20 18:00:00 13.3 12.9 13.7 0 7332 13.53 13.02 14.25 0 0 0
2019-04-20 19:00:00 12.5 12.2 12.9 0 7030 12.47 10.83 13.64 0 0 0
2019-04-20 20:00:00 11.5 11.1 12 0 7010 10.46 10.15 10.66 0 0 0
2019-04-20 21:00:00 10.6 10.3 11.1 0 6992 9.68 7.74 10.74 0 0 0
2019-04-20 22:00:00 9.9 9.6 10.4 0 6982 7.5 7.09 7.92 0 0 0
2019-04-20 23:00:00 9.1 8.7 9.6 0 6962 6.95 6.83 7.11 0 0 0
2019-04-21 00:00:00 8.6 8.5 8.8 0 6942 8.04 7.31 9.06 0 0 0
2019-04-21 01:00:00 8.3 8 8.5 0 6932 6.32 5.51 7.89 0 0 0
2019-04-21 02:00:00 7.9 7.7 8.1 0 6932 4.75 4.08 5.48 0 0 0
2019-04-21 03:00:00 7.5 7.4 7.8 0 6922 3.96 3.49 4.57 0 0 0
2019-04-21 04:00:00 7.3 7.1 7.5 0 6914 3.8 3.52 4.18 0 0 0
2019-04-21 05:00:00 7.1 7.1 7.3 0 6914 4.69 4.34 4.99 0 0 0
2019-04-21 06:00:00 7.1 7.1 7.3 0 6914 4.84 4.36 5.51 0 0 0
2019-04-21 07:00:00 7.2 7 7.5 0 6962 6.02 5.46 6.52 0 0 0
2019-04-21 08:00:00 7.4 7.3 7.8 0 7088 8.79 6.76 10.59 0 0 0
2019-04-21 09:00:00 8.2 7.7 8.9 0 7216 13.17 10.97 15.32 0 0 0
2019-04-21 10:00:00 9.5 8.9 10.2 0 7352 15.42 14.85 16.24 0 0 0
2019-04-21 11:00:00 11 10.4 11.6 0 7342 16.12 15.66 16.7 0 0 0
2019-04-21 12:00:00 12.4 11.6 13.3 0 7352 17.31 16.33 18.23 0 0 0
2019-04-21 13:00:00 14.3 13.5 15.1 0 7342 18.35 17.36 19.74 0 0 0
2019-04-21 14:00:00 15.9 15.3 16.6 0 7342 19.87 18.72 20.86 0 0 0
2019-04-21 15:00:00 17.1 16.7 17.5 0 7274 19.65 18.85 20.32 0 0 0
2019-04-21 16:00:00 17.6 17.5 18 0 7246 19.28 18.22 20.03 0 0 0
2019-04-21 17:00:00 17.8 17.7 18 0 7158 18.01 16.57 19.26 0 0 0
2019-04-21 18:00:00 16.9 16.3 17.6 0 7332 15.12 14.52 16.27 0 0 0